Grove City, Ohio
Current Conditions -  °F | °C
As of 4:50 PM on Friday 28 Nov 2014 (Local Time) from KTZR Reporting Station
Overcast Overcast  
Wind Chill: 23°   Ceiling: 12000
Heat Index: 30°   Visibility: 10mi
Dew Point: 21°   Wind: 7mph
Humidity: 69%   Direction: 170°S
Pressure: 30.22"   Gusts: NA
Location:  39.87°N, 83.07°W
Report Text: KTZR 282150Z 17006KT 10SM OVC120 M01/M06 A3022
Loading
Personal Weather Stations






























Interactive Weather Map New forecast layout! Learn more

10-Day Weather Forecast

Advertisements
Track Severe Weather on mobile